sensor_id;sensor_type;location;lat;lon;timestamp;pressure;altitude;pressure_sealevel;temperature;humidity
10958;BME280;5531;42.570;23.676;2023-04-02T00:03:01;91117.41;;;4.88;100.00
10958;BME280;5531;42.570;23.676;2023-04-02T00:05:41;91114.88;;;4.73;100.00
10958;BME280;5531;42.570;23.676;2023-04-02T00:08:26;91104.88;;;4.70;100.00
10958;BME280;5531;42.570;23.676;2023-04-02T00:10:57;91094.59;;;4.62;100.00
10958;BME280;5531;42.570;23.676;2023-04-02T00:13:32;91083.09;;;4.71;100.00
10958;BME280;5531;42.570;23.676;2023-04-02T00:16:05;91083.44;;;4.83;100.00
10958;BME280;5531;42.570;23.676;2023-04-02T00:18:41;91080.06;;;4.89;100.00
10958;BME280;5531;42.570;23.676;2023-04-02T00:21:16;91083.84;;;5.08;100.00
10958;BME280;5531;42.570;23.676;2023-04-02T00:23:47;91082.13;;;5.15;100.00
10958;BME280;5531;42.570;23.676;2023-04-02T00:26:26;91085.63;;;5.29;100.00
10958;BME280;5531;42.570;23.676;2023-04-02T00:28:58;91079.31;;;5.38;100.00
10958;BME280;5531;42.570;23.676;2023-04-02T00:31:28;91080.53;;;5.42;100.00
10958;BME280;5531;42.570;23.676;2023-04-02T00:34:01;91081.75;;;5.46;100.00
10958;BME280;5531;42.570;23.676;2023-04-02T00:36:32;91077.81;;;5.29;100.00
10958;BME280;5531;42.570;23.676;2023-04-02T00:39:09;91073.75;;;5.20;100.00
10958;BME280;5531;42.570;23.676;2023-04-02T00:41:43;91072.72;;;5.14;100.00
10958;BME280;5531;42.570;23.676;2023-04-02T00:44:15;91093.38;;;5.01;100.00
10958;BME280;5531;42.570;23.676;2023-04-02T00:46:47;91080.06;;;4.89;100.00
10958;BME280;5531;42.570;23.676;2023-04-02T00:49:25;91088.38;;;4.77;100.00
10958;BME280;5531;42.570;23.676;2023-04-02T00:52:00;91085.88;;;4.69;100.00
10958;BME280;5531;42.570;23.676;2023-04-02T00:54:36;91084.34;;;4.53;100.00
10958;BME280;5531;42.570;23.676;2023-04-02T00:57:12;91086.28;;;4.66;100.00
10958;BME280;5531;42.570;23.676;2023-04-02T00:59:52;91082.31;;;4.70;100.00
10958;BME280;5531;42.570;23.676;2023-04-02T01:02:25;91085.88;;;4.69;100.00
10958;BME280;5531;42.570;23.676;2023-04-02T01:04:58;91084.91;;;4.70;100.00
10958;BME280;5531;42.570;23.676;2023-04-02T01:07:44;91094.13;;;4.73;100.00
10958;BME280;5531;42.570;23.676;2023-04-02T01:10:25;91096.34;;;4.76;100.00
10958;BME280;5531;42.570;23.676;2023-04-02T01:13:06;91097.94;;;4.77;100.00
10958;BME280;5531;42.570;23.676;2023-04-02T01:15:41;91105.47;;;4.72;100.00
10958;BME280;5531;42.570;23.676;2023-04-02T01:18:22;91099.84;;;4.68;100.00
10958;BME280;5531;42.570;23.676;2023-04-02T01:24:03;91101.13;;;4.57;100.00
10958;BME280;5531;42.570;23.676;2023-04-02T01:26:42;91097.75;;;4.57;100.00
10958;BME280;5531;42.570;23.676;2023-04-02T01:29:17;91101.13;;;4.57;100.00
10958;BME280;5531;42.570;23.676;2023-04-02T01:31:48;91105.47;;;4.50;100.00
10958;BME280;5531;42.570;23.676;2023-04-02T01:34:20;91108.53;;;4.39;100.00
10958;BME280;5531;42.570;23.676;2023-04-02T01:37:03;91102.81;;;4.29;100.00
10958;BME280;5531;42.570;23.676;2023-04-02T01:39:54;91105.13;;;4.23;100.00
10958;BME280;5531;42.570;23.676;2023-04-02T01:42:33;91101.13;;;4.21;100.00
10958;BME280;5531;42.570;23.676;2023-04-02T01:45:09;91101.38;;;4.26;100.00
10958;BME280;5531;42.570;23.676;2023-04-02T01:47:39;91111.91;;;4.39;100.00
10958;BME280;5531;42.570;23.676;2023-04-02T01:50:22;91113.34;;;4.42;100.00
10958;BME280;5531;42.570;23.676;2023-04-02T01:52:59;91121.91;;;4.43;100.00
10958;BME280;5531;42.570;23.676;2023-04-02T01:55:32;91126.66;;;4.39;100.00
10958;BME280;5531;42.570;23.676;2023-04-02T01:58:02;91122.03;;;4.34;100.00
10958;BME280;5531;42.570;23.676;2023-04-02T02:00:35;91119.53;;;4.26;100.00
10958;BME280;5531;42.570;23.676;2023-04-02T02:03:10;91114.28;;;4.19;100.00
10958;BME280;5531;42.570;23.676;2023-04-02T02:05:39;91110.25;;;4.17;100.00
10958;BME280;5531;42.570;23.676;2023-04-02T02:08:20;91112.66;;;4.03;100.00
10958;BME280;5531;42.570;23.676;2023-04-02T02:10:51;91111.69;;;4.04;100.00
10958;BME280;5531;42.570;23.676;2023-04-02T02:13:20;91099.91;;;4.02;100.00
10958;BME280;5531;42.570;23.676;2023-04-02T02:15:56;91100.78;;;4.09;100.00
10958;BME280;5531;42.570;23.676;2023-04-02T02:18:25;91103.22;;;4.11;100.00
10958;BME280;5531;42.570;23.676;2023-04-02T02:20:57;91098.81;;;4.11;100.00
10958;BME280;5531;42.570;23.676;2023-04-02T02:23:28;91095.41;;;4.26;100.00
10958;BME280;5531;42.570;23.676;2023-04-02T02:25:57;91101.81;;;4.30;100.00
10958;BME280;5531;42.570;23.676;2023-04-02T02:28:28;91098.06;;;4.32;100.00
10958;BME280;5531;42.570;23.676;2023-04-02T02:31:03;91092.06;;;4.32;100.00
10958;BME280;5531;42.570;23.676;2023-04-02T02:33:37;91097.78;;;4.42;100.00
10958;BME280;5531;42.570;23.676;2023-04-02T02:36:13;91105.47;;;4.50;100.00
10958;BME280;5531;42.570;23.676;2023-04-02T02:38:49;91101.31;;;4.56;100.00
10958;BME280;5531;42.570;23.676;2023-04-02T02:41:23;91097.81;;;4.64;100.00
10958;BME280;5531;42.570;23.676;2023-04-02T02:43:59;91098.97;;;4.61;100.00
10958;BME280;5531;42.570;23.676;2023-04-02T02:46:32;91102.94;;;4.78;100.00
10958;BME280;5531;42.570;23.676;2023-04-02T02:49:03;91096.72;;;4.94;100.00
10958;BME280;5531;42.570;23.676;2023-04-02T02:51:41;91095.28;;;4.92;100.00
10958;BME280;5531;42.570;23.676;2023-04-02T02:54:13;91092.25;;;4.88;100.00
10958;BME280;5531;42.570;23.676;2023-04-02T02:56:45;91097.25;;;4.90;100.00
10958;BME280;5531;42.570;23.676;2023-04-02T02:59:16;91095.72;;;4.74;100.00
10958;BME280;5531;42.570;23.676;2023-04-02T03:01:50;91092.19;;;4.60;100.00
10958;BME280;5531;42.570;23.676;2023-04-02T03:04:21;91088.88;;;4.51;100.00
10958;BME280;5531;42.570;23.676;2023-04-02T03:06:52;91087.84;;;4.46;100.00
10958;BME280;5531;42.570;23.676;2023-04-02T03:09:30;91096.72;;;4.36;100.00
10958;BME280;5531;42.570;23.676;2023-04-02T03:12:06;91103.28;;;4.17;100.00
10958;BME280;5531;42.570;23.676;2023-04-02T03:14:43;91102.03;;;4.13;100.00
10958;BME280;5531;42.570;23.676;2023-04-02T03:17:19;91097.63;;;4.14;100.00
10958;BME280;5531;42.570;23.676;2023-04-02T03:19:53;91096.09;;;4.34;100.00
10958;BME280;5531;42.570;23.676;2023-04-02T03:22:29;91104.44;;;4.51;100.00
10958;BME280;5531;42.570;23.676;2023-04-02T03:25:05;91104.72;;;4.56;100.00
10958;BME280;5531;42.570;23.676;2023-04-02T03:27:42;91097.94;;;4.77;100.00
10958;BME280;5531;42.570;23.676;2023-04-02T03:30:27;91099.13;;;4.96;100.00
10958;BME280;5531;42.570;23.676;2023-04-02T03:33:02;91105.41;;;5.08;100.00
10958;BME280;5531;42.570;23.676;2023-04-02T03:35:35;91098.75;;;5.21;100.00
10958;BME280;5531;42.570;23.676;2023-04-02T03:38:10;91098.03;;;5.33;100.00
10958;BME280;5531;42.570;23.676;2023-04-02T03:40:43;91100.50;;;5.42;100.00
10958;BME280;5531;42.570;23.676;2023-04-02T03:43:20;91107.56;;;5.48;99.77
10958;BME280;5531;42.570;23.676;2023-04-02T03:45:55;91111.19;;;5.54;98.99
10958;BME280;5531;42.570;23.676;2023-04-02T03:48:33;91110.38;;;5.53;97.98
10958;BME280;5531;42.570;23.676;2023-04-02T03:51:13;91120.78;;;5.53;98.68
10958;BME280;5531;42.570;23.676;2023-04-02T03:53:45;91114.78;;;5.53;99.28
10958;BME280;5531;42.570;23.676;2023-04-02T03:56:23;91111.72;;;5.49;99.45
10958;BME280;5531;42.570;23.676;2023-04-02T03:59:04;91116.09;;;5.42;99.48
10958;BME280;5531;42.570;23.676;2023-04-02T04:01:37;91114.22;;;5.36;99.64
10958;BME280;5531;42.570;23.676;2023-04-02T04:04:15;91125.38;;;5.29;99.66
10958;BME280;5531;42.570;23.676;2023-04-02T04:06:49;91122.09;;;5.21;100.00
10958;BME280;5531;42.570;23.676;2023-04-02T04:09:22;91127.44;;;5.12;100.00
10958;BME280;5531;42.570;23.676;2023-04-02T04:11:59;91123.34;;;5.03;100.00
10958;BME280;5531;42.570;23.676;2023-04-02T04:14:34;91117.84;;;5.13;100.00
10958;BME280;5531;42.570;23.676;2023-04-02T04:17:10;91118.72;;;5.20;100.00
10958;BME280;5531;42.570;23.676;2023-04-02T04:19:46;91116.16;;;5.27;100.00
10958;BME280;5531;42.570;23.676;2023-04-02T04:22:23;91119.19;;;5.30;100.00
10958;BME280;5531;42.570;23.676;2023-04-02T04:24:55;91119.19;;;5.30;100.00
10958;BME280;5531;42.570;23.676;2023-04-02T04:27:30;91122.16;;;5.27;100.00
10958;BME280;5531;42.570;23.676;2023-04-02T04:30:05;91126.38;;;5.28;100.00
10958;BME280;5531;42.570;23.676;2023-04-02T04:32:37;91132.19;;;5.30;100.00
10958;BME280;5531;42.570;23.676;2023-04-02T04:35:18;91141.28;;;5.41;99.89
10958;BME280;5531;42.570;23.676;2023-04-02T04:37:54;91137.53;;;5.50;98.18
10958;BME280;5531;42.570;23.676;2023-04-02T04:40:31;91134.75;;;5.52;96.98
10958;BME280;5531;42.570;23.676;2023-04-02T04:43:04;91133.34;;;5.49;97.68
10958;BME280;5531;42.570;23.676;2023-04-02T04:45:40;91143.41;;;5.38;98.59
10958;BME280;5531;42.570;23.676;2023-04-02T04:48:17;91146.78;;;5.31;96.25
10958;BME280;5531;42.570;23.676;2023-04-02T04:50:53;91142.81;;;5.36;96.12
10958;BME280;5531;42.570;23.676;2023-04-02T04:53:25;91143.81;;;5.35;95.74
10958;BME280;5531;42.570;23.676;2023-04-02T04:55:56;91147.53;;;5.25;96.99
10958;BME280;5531;42.570;23.676;2023-04-02T04:58:32;91143.38;;;5.09;99.08
10958;BME280;5531;42.570;23.676;2023-04-02T05:01:05;91145.22;;;4.94;100.00
10958;BME280;5531;42.570;23.676;2023-04-02T05:03:41;91150.34;;;4.87;100.00
10958;BME280;5531;42.570;23.676;2023-04-02T05:06:21;91149.56;;;4.72;100.00
10958;BME280;5531;42.570;23.676;2023-04-02T05:08:53;91149.13;;;4.47;100.00
10958;BME280;5531;42.570;23.676;2023-04-02T05:11:29;91140.72;;;4.30;100.00
10958;BME280;5531;42.570;23.676;2023-04-02T05:14:01;91150.91;;;4.16;100.00
10958;BME280;5531;42.570;23.676;2023-04-02T05:16:36;91156.19;;;4.08;100.00
10958;BME280;5531;42.570;23.676;2023-04-02T05:19:11;91145.38;;;4.19;100.00
10958;BME280;5531;42.570;23.676;2023-04-02T05:21:48;91152.97;;;4.36;100.00
10958;BME280;5531;42.570;23.676;2023-04-02T05:24:37;91153.47;;;4.46;100.00
10958;BME280;5531;42.570;23.676;2023-04-02T05:27:17;91153.44;;;4.61;100.00
10958;BME280;5531;42.570;23.676;2023-04-02T05:29:54;91153.75;;;4.88;100.00
10958;BME280;5531;42.570;23.676;2023-04-02T05:32:29;91159.69;;;5.03;100.00
10958;BME280;5531;42.570;23.676;2023-04-02T05:34:59;91165.81;;;5.17;100.00
10958;BME280;5531;42.570;23.676;2023-04-02T05:37:33;91170.94;;;5.32;100.00
10958;BME280;5531;42.570;23.676;2023-04-02T05:40:11;91174.38;;;5.39;100.00
10958;BME280;5531;42.570;23.676;2023-04-02T05:42:44;91169.75;;;5.56;100.00
10958;BME280;5531;42.570;23.676;2023-04-02T05:45:22;91167.63;;;5.66;99.86
10958;BME280;5531;42.570;23.676;2023-04-02T05:47:54;91162.72;;;5.78;98.75
10958;BME280;5531;42.570;23.676;2023-04-02T05:50:29;91176.00;;;5.90;98.39
10958;BME280;5531;42.570;23.676;2023-04-02T05:53:08;91175.53;;;6.01;98.44
10958;BME280;5531;42.570;23.676;2023-04-02T05:55:44;91183.56;;;6.07;97.80
10958;BME280;5531;42.570;23.676;2023-04-02T05:58:23;91178.81;;;6.17;97.67
10958;BME280;5531;42.570;23.676;2023-04-02T06:01:01;91181.06;;;6.27;97.21
10958;BME280;5531;42.570;23.676;2023-04-02T06:03:39;91186.88;;;6.29;98.13
10958;BME280;5531;42.570;23.676;2023-04-02T06:06:17;91194.72;;;6.35;98.20
10958;BME280;5531;42.570;23.676;2023-04-02T06:08:55;91191.66;;;6.60;98.27
10958;BME280;5531;42.570;23.676;2023-04-02T06:11:28;91194.69;;;6.70;96.73
10958;BME280;5531;42.570;23.676;2023-04-02T06:13:59;91195.91;;;6.74;96.64
10958;BME280;5531;42.570;23.676;2023-04-02T06:16:29;91193.78;;;6.85;95.32
10958;BME280;5531;42.570;23.676;2023-04-02T06:19:02;91192.56;;;6.94;95.17
10958;BME280;5531;42.570;23.676;2023-04-02T06:21:39;91191.63;;;7.08;93.44
10958;BME280;5531;42.570;23.676;2023-04-02T06:24:17;91190.66;;;7.16;93.98
10958;BME280;5531;42.570;23.676;2023-04-02T06:26:50;91184.88;;;7.21;92.49
10958;BME280;5531;42.570;23.676;2023-04-02T06:29:25;91189.06;;;7.22;92.84
10958;BME280;5531;42.570;23.676;2023-04-02T06:31:58;91202.06;;;7.22;94.27
10958;BME280;5531;42.570;23.676;2023-04-02T06:34:29;91192.31;;;7.30;95.85
10958;BME280;5531;42.570;23.676;2023-04-02T06:37:00;91190.50;;;7.31;94.05
10958;BME280;5531;42.570;23.676;2023-04-02T06:39:33;91195.72;;;7.38;94.96
10958;BME280;5531;42.570;23.676;2023-04-02T06:42:05;91189.91;;;7.42;94.60
10958;BME280;5531;42.570;23.676;2023-04-02T06:44:35;91203.34;;;7.52;96.98
10958;BME280;5531;42.570;23.676;2023-04-02T06:47:12;91209.19;;;7.55;94.75
10958;BME280;5531;42.570;23.676;2023-04-02T06:49:46;91206.16;;;7.58;94.39
10958;BME280;5531;42.570;23.676;2023-04-02T06:52:20;91201.56;;;7.60;93.00
10958;BME280;5531;42.570;23.676;2023-04-02T06:54:54;91199.97;;;7.65;94.09
10958;BME280;5531;42.570;23.676;2023-04-02T06:57:23;91199.16;;;7.71;94.57
10958;BME280;5531;42.570;23.676;2023-04-02T06:59:52;91208.41;;;7.81;95.74
10958;BME280;5531;42.570;23.676;2023-04-02T07:02:29;91203.78;;;7.89;94.51
10958;BME280;5531;42.570;23.676;2023-04-02T07:05:03;91208.00;;;7.97;93.42
10958;BME280;5531;42.570;23.676;2023-04-02T07:07:33;91211.41;;;8.18;93.78
10958;BME280;5531;42.570;23.676;2023-04-02T07:10:06;91210.38;;;8.32;94.63
10958;BME280;5531;42.570;23.676;2023-04-02T07:12:35;91216.41;;;8.33;92.81
10958;BME280;5531;42.570;23.676;2023-04-02T07:15:08;91222.81;;;8.37;91.24
10958;BME280;5531;42.570;23.676;2023-04-02T07:17:38;91236.06;;;8.42;91.51
10958;BME280;5531;42.570;23.676;2023-04-02T07:20:23;91232.06;;;8.53;91.06
10958;BME280;5531;42.570;23.676;2023-04-02T07:22:52;91234.69;;;8.59;89.50
10958;BME280;5531;42.570;23.676;2023-04-02T07:25:24;91235.44;;;8.67;87.15
10958;BME280;5531;42.570;23.676;2023-04-02T07:27:54;91238.88;;;8.74;88.32
10958;BME280;5531;42.570;23.676;2023-04-02T07:30:24;91238.03;;;8.87;89.19
10958;BME280;5531;42.570;23.676;2023-04-02T07:32:53;91243.63;;;8.97;86.30
10958;BME280;5531;42.570;23.676;2023-04-02T07:35:22;91239.13;;;9.17;88.52
10958;BME280;5531;42.570;23.676;2023-04-02T07:37:51;91248.50;;;9.32;84.49
10958;BME280;5531;42.570;23.676;2023-04-02T07:40:23;91258.53;;;9.35;84.73
10958;BME280;5531;42.570;23.676;2023-04-02T07:42:52;91251.28;;;9.44;85.36
10958;BME280;5531;42.570;23.676;2023-04-02T07:45:21;91260.31;;;9.48;80.87
10958;BME280;5531;42.570;23.676;2023-04-02T07:47:50;91251.09;;;9.45;81.28
10958;BME280;5531;42.570;23.676;2023-04-02T07:50:19;91247.53;;;9.71;84.58
10958;BME280;5531;42.570;23.676;2023-04-02T07:52:49;91242.63;;;9.82;82.71
10958;BME280;5531;42.570;23.676;2023-04-02T07:55:18;91241.56;;;9.89;81.98
10958;BME280;5531;42.570;23.676;2023-04-02T07:57:51;91253.31;;;10.05;81.33
10958;BME280;5531;42.570;23.676;2023-04-02T08:00:21;91250.94;;;10.04;81.07
10958;BME280;5531;42.570;23.676;2023-04-02T08:02:51;91250.69;;;10.05;79.16
10958;BME280;5531;42.570;23.676;2023-04-02T08:05:21;91256.19;;;9.97;81.83
10958;BME280;5531;42.570;23.676;2023-04-02T08:07:53;91262.09;;;9.86;79.63
10958;BME280;5531;42.570;23.676;2023-04-02T08:10:23;91260.47;;;9.91;79.97
10958;BME280;5531;42.570;23.676;2023-04-02T08:12:55;91260.22;;;10.00;80.95
10958;BME280;5531;42.570;23.676;2023-04-02T08:15:24;91257.72;;;10.12;80.75
10958;BME280;5531;42.570;23.676;2023-04-02T08:17:53;91274.56;;;10.22;78.86
10958;BME280;5531;42.570;23.676;2023-04-02T08:20:22;91266.91;;;10.21;78.45
10958;BME280;5531;42.570;23.676;2023-04-02T08:22:51;91271.31;;;10.27;76.20
10958;BME280;5531;42.570;23.676;2023-04-02T08:25:21;91269.47;;;10.34;78.01
10958;BME280;5531;42.570;23.676;2023-04-02T08:27:50;91263.31;;;10.47;78.83
10958;BME280;5531;42.570;23.676;2023-04-02T08:30:22;91268.34;;;10.49;75.66
10958;BME280;5531;42.570;23.676;2023-04-02T08:32:51;91267.13;;;10.51;75.51
10958;BME280;5531;42.570;23.676;2023-04-02T08:35:20;91264.75;;;10.68;77.78
10958;BME280;5531;42.570;23.676;2023-04-02T08:37:49;91257.25;;;10.72;74.86
10958;BME280;5531;42.570;23.676;2023-04-02T08:40:22;91266.59;;;10.86;75.66
10958;BME280;5531;42.570;23.676;2023-04-02T08:43:07;91268.44;;;11.04;80.37
10958;BME280;5531;42.570;23.676;2023-04-02T08:45:55;91272.53;;;11.18;71.72
10958;BME280;5531;42.570;23.676;2023-04-02T08:48:30;91275.66;;;11.09;70.50
10958;BME280;5531;42.570;23.676;2023-04-02T08:51:01;91275.72;;;11.21;74.91
10958;BME280;5531;42.570;23.676;2023-04-02T08:53:33;91259.47;;;11.30;75.71
10958;BME280;5531;42.570;23.676;2023-04-02T08:56:08;91266.97;;;11.27;76.24
10958;BME280;5531;42.570;23.676;2023-04-02T08:58:44;91274.41;;;11.30;77.50
10958;BME280;5531;42.570;23.676;2023-04-02T09:01:25;91273.72;;;11.53;74.80
10958;BME280;5531;42.570;23.676;2023-04-02T09:03:58;91270.84;;;11.73;74.32
10958;BME280;5531;42.570;23.676;2023-04-02T09:06:28;91274.13;;;11.68;75.91
10958;BME280;5531;42.570;23.676;2023-04-02T09:08:58;91279.75;;;11.72;72.50
10958;BME280;5531;42.570;23.676;2023-04-02T09:11:32;91273.22;;;11.63;73.36
10958;BME280;5531;42.570;23.676;2023-04-02T09:14:11;91269.88;;;11.55;72.27
10958;BME280;5531;42.570;23.676;2023-04-02T09:16:48;91277.72;;;11.74;71.48
10958;BME280;5531;42.570;23.676;2023-04-02T09:19:20;91272.56;;;11.98;71.23
10958;BME280;5531;42.570;23.676;2023-04-02T09:22:10;91269.72;;;11.99;72.10
10958;BME280;5531;42.570;23.676;2023-04-02T09:24:50;91261.72;;;11.94;68.07
10958;BME280;5531;42.570;23.676;2023-04-02T09:27:21;91267.72;;;12.13;70.03
10958;BME280;5531;42.570;23.676;2023-04-02T09:29:53;91260.75;;;12.19;71.43
10958;BME280;5531;42.570;23.676;2023-04-02T09:32:44;91273.94;;;12.31;69.32
10958;BME280;5531;42.570;23.676;2023-04-02T09:35:17;91270.00;;;12.52;68.72
10958;BME280;5531;42.570;23.676;2023-04-02T09:38:15;91268.59;;;12.49;68.05
10958;BME280;5531;42.570;23.676;2023-04-02T09:40:48;91268.38;;;12.39;69.67
10958;BME280;5531;42.570;23.676;2023-04-02T09:43:19;91267.25;;;12.58;71.11
10958;BME280;5531;42.570;23.676;2023-04-02T09:45:57;91257.88;;;12.51;72.52
10958;BME280;5531;42.570;23.676;2023-04-02T09:48:32;91261.38;;;12.33;69.58
10958;BME280;5531;42.570;23.676;2023-04-02T09:51:06;91255.06;;;12.22;69.77
10958;BME280;5531;42.570;23.676;2023-04-02T09:53:36;91255.63;;;12.12;69.45
10958;BME280;5531;42.570;23.676;2023-04-02T09:56:11;91254.56;;;12.01;69.64
10958;BME280;5531;42.570;23.676;2023-04-02T09:58:42;91266.75;;;11.96;68.78
10958;BME280;5531;42.570;23.676;2023-04-02T10:01:27;91255.97;;;11.85;70.79
10958;BME280;5531;42.570;23.676;2023-04-02T10:04:00;91255.84;;;11.80;68.95
10958;BME280;5531;42.570;23.676;2023-04-02T10:06:30;91261.44;;;11.84;72.23
10958;BME280;5531;42.570;23.676;2023-04-02T10:09:19;91257.88;;;11.78;70.19
10958;BME280;5531;42.570;23.676;2023-04-02T10:11:50;91249.28;;;11.71;69.56
10958;BME280;5531;42.570;23.676;2023-04-02T10:14:23;91245.00;;;11.77;69.08
10958;BME280;5531;42.570;23.676;2023-04-02T10:16:56;91241.09;;;11.79;65.54
10958;BME280;5531;42.570;23.676;2023-04-02T10:19:32;91242.59;;;12.05;68.75
10958;BME280;5531;42.570;23.676;2023-04-02T10:22:04;91246.19;;;12.23;69.12
10958;BME280;5531;42.570;23.676;2023-04-02T10:24:39;91245.63;;;12.44;67.35
10958;BME280;5531;42.570;23.676;2023-04-02T10:27:16;91239.03;;;12.65;66.65
10958;BME280;5531;42.570;23.676;2023-04-02T10:32:48;91239.94;;;12.95;62.96
10958;BME280;5531;42.570;23.676;2023-04-02T10:35:37;91235.13;;;12.92;63.20
10958;BME280;5531;42.570;23.676;2023-04-02T10:38:25;91235.72;;;13.06;63.83
10958;BME280;5531;42.570;23.676;2023-04-02T10:41:01;91238.66;;;13.09;61.40
10958;BME280;5531;42.570;23.676;2023-04-02T10:43:57;91242.09;;;13.10;60.88
10958;BME280;5531;42.570;23.676;2023-04-02T10:46:31;91248.28;;;13.15;59.01
10958;BME280;5531;42.570;23.676;2023-04-02T10:49:12;91252.63;;;12.98;56.80
10958;BME280;5531;42.570;23.676;2023-04-02T10:51:56;91239.34;;;13.05;61.17
10958;BME280;5531;42.570;23.676;2023-04-02T10:54:42;91247.00;;;13.06;62.71
10958;BME280;5531;42.570;23.676;2023-04-02T10:57:22;91245.06;;;13.01;58.02
10958;BME280;5531;42.570;23.676;2023-04-02T10:59:58;91241.75;;;13.06;60.22
10958;BME280;5531;42.570;23.676;2023-04-02T11:02:33;91241.19;;;12.92;64.68
10958;BME280;5531;42.570;23.676;2023-04-02T11:05:12;91250.91;;;12.68;60.32
10958;BME280;5531;42.570;23.676;2023-04-02T11:07:52;91237.56;;;12.70;60.70
10958;BME280;5531;42.570;23.676;2023-04-02T11:10:22;91247.00;;;13.06;65.30
10958;BME280;5531;42.570;23.676;2023-04-02T11:12:57;91248.94;;;13.34;59.83
10958;BME280;5531;42.570;23.676;2023-04-02T11:15:28;91249.50;;;13.48;58.60
10958;BME280;5531;42.570;23.676;2023-04-02T11:17:58;91244.13;;;13.43;60.07
10958;BME280;5531;42.570;23.676;2023-04-02T11:23:31;91242.31;;;13.20;59.96
10958;BME280;5531;42.570;23.676;2023-04-02T11:32:11;91234.72;;;13.47;60.04
10958;BME280;5531;42.570;23.676;2023-04-02T11:35:03;91232.47;;;13.39;56.54
10958;BME280;5531;42.570;23.676;2023-04-02T11:37:51;91224.00;;;13.37;60.56
10958;BME280;5531;42.570;23.676;2023-04-02T11:40:49;91215.97;;;13.44;57.51
10958;BME280;5531;42.570;23.676;2023-04-02T11:46:34;91214.22;;;13.61;56.96
10958;BME280;5531;42.570;23.676;2023-04-02T11:49:35;91215.16;;;13.84;57.39
10958;BME280;5531;42.570;23.676;2023-04-02T11:52:22;91221.19;;;14.13;54.56
10958;BME280;5531;42.570;23.676;2023-04-02T11:55:16;91214.09;;;14.30;57.39
10958;BME280;5531;42.570;23.676;2023-04-02T12:01:23;91218.25;;;14.43;53.17
10958;BME280;5531;42.570;23.676;2023-04-02T12:04:18;91207.06;;;14.53;55.74
10958;BME280;5531;42.570;23.676;2023-04-02T12:06:59;91211.31;;;14.54;55.27
10958;BME280;5531;42.570;23.676;2023-04-02T12:09:34;91208.22;;;14.57;55.48
10958;BME280;5531;42.570;23.676;2023-04-02T12:12:17;91198.00;;;14.44;54.33
10958;BME280;5531;42.570;23.676;2023-04-02T12:14:46;91209.00;;;14.75;52.96
10958;BME280;5531;42.570;23.676;2023-04-02T12:17:24;91196.06;;;14.56;51.81
10958;BME280;5531;42.570;23.676;2023-04-02T12:19:58;91215.00;;;14.36;53.97
10958;BME280;5531;42.570;23.676;2023-04-02T12:22:30;91206.50;;;14.17;52.80
10958;BME280;5531;42.570;23.676;2023-04-02T12:25:04;91205.09;;;14.26;59.43
10958;BME280;5531;42.570;23.676;2023-04-02T12:27:34;91202.38;;;14.38;55.88
10958;BME280;5531;42.570;23.676;2023-04-02T12:30:15;91205.31;;;14.42;54.68
10958;BME280;5531;42.570;23.676;2023-04-02T12:32:47;91202.75;;;14.30;52.07
10958;BME280;5531;42.570;23.676;2023-04-02T12:35:27;91208.50;;;14.27;54.12
10958;BME280;5531;42.570;23.676;2023-04-02T12:37:57;91207.09;;;14.36;52.16
10958;BME280;5531;42.570;23.676;2023-04-02T12:40:26;91204.69;;;14.35;53.36
10958;BME280;5531;42.570;23.676;2023-04-02T12:42:55;91200.22;;;14.52;55.83
10958;BME280;5531;42.570;23.676;2023-04-02T12:45:26;91210.16;;;14.62;51.59
10958;BME280;5531;42.570;23.676;2023-04-02T12:48:02;91214.19;;;14.70;54.03
10958;BME280;5531;42.570;23.676;2023-04-02T12:50:33;91206.28;;;14.53;53.18
10958;BME280;5531;42.570;23.676;2023-04-02T12:53:02;91219.88;;;14.61;52.32
10958;BME280;5531;42.570;23.676;2023-04-02T12:55:32;91202.28;;;14.50;52.24
10958;BME280;5531;42.570;23.676;2023-04-02T12:58:03;91216.59;;;14.71;51.36
10958;BME280;5531;42.570;23.676;2023-04-02T13:00:33;91193.19;;;14.58;50.80
10958;BME280;5531;42.570;23.676;2023-04-02T13:03:19;91198.97;;;14.72;52.28
10958;BME280;5531;42.570;23.676;2023-04-02T13:05:52;91200.16;;;14.64;50.13
10958;BME280;5531;42.570;23.676;2023-04-02T13:08:24;91191.13;;;14.60;51.36
10958;BME280;5531;42.570;23.676;2023-04-02T13:10:55;91193.34;;;14.51;49.65
10958;BME280;5531;42.570;23.676;2023-04-02T13:13:28;91189.91;;;14.51;51.28
10958;BME280;5531;42.570;23.676;2023-04-02T13:16:03;91186.31;;;14.40;52.93
10958;BME280;5531;42.570;23.676;2023-04-02T13:18:36;91198.78;;;14.44;51.80
10958;BME280;5531;42.570;23.676;2023-04-02T13:21:22;91201.31;;;14.22;51.48
10958;BME280;5531;42.570;23.676;2023-04-02T13:23:52;91186.78;;;14.37;54.51
10958;BME280;5531;42.570;23.676;2023-04-02T13:26:22;91191.75;;;14.33;51.89
10958;BME280;5531;42.570;23.676;2023-04-02T13:29:02;91193.50;;;14.44;50.88
10958;BME280;5531;42.570;23.676;2023-04-02T13:31:31;91184.41;;;14.52;52.64
10958;BME280;5531;42.570;23.676;2023-04-02T13:34:03;91186.97;;;14.64;50.50
10958;BME280;5531;42.570;23.676;2023-04-02T13:36:32;91185.13;;;14.64;50.21
10958;BME280;5531;42.570;23.676;2023-04-02T13:39:02;91190.66;;;14.63;51.80
10958;BME280;5531;42.570;23.676;2023-04-02T13:41:35;91177.06;;;14.71;49.32
10958;BME280;5531;42.570;23.676;2023-04-02T13:44:09;91173.41;;;14.94;53.90
10958;BME280;5531;42.570;23.676;2023-04-02T13:46:42;91189.03;;;15.18;47.92
10958;BME280;5531;42.570;23.676;2023-04-02T13:49:14;91189.75;;;15.13;48.92
10958;BME280;5531;42.570;23.676;2023-04-02T13:51:45;91194.13;;;15.02;49.44
10958;BME280;5531;42.570;23.676;2023-04-02T13:54:19;91190.91;;;15.00;47.58
10958;BME280;5531;42.570;23.676;2023-04-02T13:56:49;91193.81;;;14.82;48.87
10958;BME280;5531;42.570;23.676;2023-04-02T13:59:18;91188.06;;;14.68;49.20
10958;BME280;5531;42.570;23.676;2023-04-02T14:01:48;91186.16;;;14.46;50.42
10958;BME280;5531;42.570;23.676;2023-04-02T14:04:25;91189.13;;;14.33;49.11
10958;BME280;5531;42.570;23.676;2023-04-02T14:07:16;91189.13;;;14.16;50.49